Aérodrome :
LOGIN :

S'inscrire | Disclaimer

   EN    FR    IT 

 










Légende :    VFR   VFR Marginal   IFR   IFR Intensif   IFR Très Intensif
Visi : 
Plafond : 
>= 8 km
>= 3000ft
5 à 8 km
1000 à 3000 ft
1500m à 5 km
500 à 1000 ft
800 à 1500m
200 à 500 ft
< 800m
< 200 ft
Symboles :   Orages  Brouillard  Fortes neiges  Fortes précipitations  Vent > 20 kt
SIGMETs :   Divers  Orages  Givrage  Turbulence  Onde Orograph.  Cendres Volcan.







- Altitude de l'aérodrome : 268 ft
- Code IATA : BFS
- Voir les cartes d'approche


EGAA - Belfast Aldergrove

DERNIER METAR :
  • 200920Z 23007KT 1200 R25/P1500 R07/P1500 -RADZ BR BKN001 OVC005 05/04 Q1018

METARs EXPIRÉS :
  • 200850Z 21005KT 1200 R25/P1500 R07/P1500 DZ BR BKN002 BKN005 05/04 Q1017
  • 200820Z 23004KT 1600 -RA BR BKN001 BKN005 05/04 Q1017
  • 200750Z 22003KT 2500 BR SCT003 BKN011 04/04 Q1016
  • 200720Z 23003KT 2500 BR SCT014 BKN048 04/03 Q1016
  • 200650Z 15003KT 3400 BR BKN043 04/03 Q1015

TAF AMD TAF EGAA
Valide du 20 à 09h jusqu'au 21 à 06h UTC


200912Z 2009/2106 22005KT 0800 FG DZ BKN001
BECMG 2009/2011 34010KT 9999 NSW SCT020
PROB30
TEMPO 2011/2012 BKN014
BECMG 2017/2020 VRB03KT
PROB30 2022/2106 0300 FZFG BKN000
Pas de NOTAMs connus pour ce terrain.



MET'MAP, la Météo Aéronautique d'un coup d'oeil ! - Copyright ORBIFLY Décembre 2007 - Disclaimer

ORBIFLY MET'MAP TEAM :

Programmation & Développement : Alexandra Zaïnal
Conception & Développement : Baudouin d'Aumeries
Co-Programmation & Développement : Marc-Olivier Méhu
Soutien technique & logistique : Manuel Goepfert

Contact : metmap@orbifly.com




SOURCES & CREDITS :

   NOAA